createdAt,value
2023-03-24T00:01:26.498Z,3.42
2023-03-24T00:03:52.027Z,3.25
2023-03-24T00:06:18.797Z,3.55
2023-03-24T00:08:43.971Z,2.42
2023-03-24T00:11:11.656Z,4.10
2023-03-24T00:13:39.097Z,3.60
2023-03-24T00:16:02.551Z,3.35
2023-03-24T00:18:26.916Z,5.47
2023-03-24T00:20:51.626Z,3.00
2023-03-24T00:23:15.530Z,3.55
2023-03-24T00:25:40.103Z,3.97
2023-03-24T00:28:06.104Z,5.70
2023-03-24T00:30:31.571Z,2.17
2023-03-24T00:32:55.312Z,3.03
2023-03-24T00:35:19.051Z,3.10
2023-03-24T00:37:44.546Z,3.42
2023-03-24T00:40:12.481Z,2.40
2023-03-24T00:42:36.991Z,3.80
2023-03-24T00:45:00.429Z,3.50
2023-03-24T00:47:26.211Z,2.67
2023-03-24T00:49:53.237Z,2.53
2023-03-24T00:52:20.531Z,3.45
2023-03-24T00:54:45.911Z,4.30
2023-03-24T00:57:12.956Z,2.40
2023-03-24T00:59:42.304Z,5.50
2023-03-24T01:02:05.958Z,3.50
2023-03-24T01:04:30.857Z,2.75
2023-03-24T01:06:58.232Z,2.70
2023-03-24T01:09:22.760Z,3.33
2023-03-24T01:11:46.441Z,3.33
2023-03-24T01:14:11.354Z,2.53
2023-03-24T01:16:34.761Z,2.35
2023-03-24T01:18:59.434Z,2.83
2023-03-24T01:21:25.368Z,3.22
2023-03-24T01:23:48.898Z,3.17
2023-03-24T01:26:12.786Z,2.88
2023-03-24T01:28:40.831Z,2.97
2023-03-24T01:31:04.399Z,2.42
2023-03-24T01:33:27.932Z,3.60
2023-03-24T01:35:51.552Z,3.63
2023-03-24T01:38:17.548Z,2.85
2023-03-24T01:40:44.582Z,3.08
2023-03-24T01:43:11.916Z,3.92
2023-03-24T01:45:59.664Z,3.20
2023-03-24T01:48:28.102Z,3.00
2023-03-24T01:50:55.953Z,2.65
2023-03-24T01:53:21.979Z,4.43
2023-03-24T01:55:48.997Z,3.88
2023-03-24T01:58:16.575Z,3.33
2023-03-24T02:01:01.868Z,2.83
2023-03-24T02:03:54.038Z,3.35
2023-03-24T02:06:20.160Z,4.30
2023-03-24T02:08:52.507Z,5.05
2023-03-24T02:11:17.219Z,3.33
2023-03-24T02:13:47.680Z,5.30
2023-03-24T02:16:27.137Z,2.85
2023-03-24T02:19:06.501Z,3.20
2023-03-24T02:22:34.585Z,3.78
2023-03-24T02:25:38.171Z,4.38
2023-03-24T02:28:17.729Z,3.20
2023-03-24T02:31:34.283Z,4.07
2023-03-24T02:34:44.511Z,3.85
2023-03-24T02:38:07.485Z,4.35
2023-03-24T02:40:46.434Z,5.97
2023-03-24T02:43:28.782Z,3.97
2023-03-24T02:46:05.335Z,5.57
2023-03-24T02:48:36.396Z,4.18
2023-03-24T02:51:08.974Z,3.95
2023-03-24T02:53:42.570Z,4.82
2023-03-24T02:56:25.719Z,3.88
2023-03-24T02:58:59.803Z,3.25
2023-03-24T03:01:32.422Z,4.30
2023-03-24T03:04:13.912Z,3.10
2023-03-24T03:06:40.746Z,3.58
2023-03-24T03:09:09.614Z,4.78
2023-03-24T03:11:34.638Z,3.95
2023-03-24T03:14:02.622Z,2.78
2023-03-24T03:16:38.275Z,4.82
2023-03-24T03:19:09.896Z,3.58
2023-03-24T03:21:41.491Z,2.80
2023-03-24T03:24:09.369Z,3.78
2023-03-24T03:26:35.447Z,2.33
2023-03-24T03:29:02.875Z,4.45
2023-03-24T03:31:32.577Z,2.83
2023-03-24T03:34:07.143Z,3.65
2023-03-24T03:36:34.005Z,2.40
2023-03-24T03:39:01.882Z,3.40
2023-03-24T03:41:26.189Z,2.95
2023-03-24T03:43:51.601Z,3.03
2023-03-24T03:46:16.913Z,3.13
2023-03-24T03:48:41.324Z,3.45
2023-03-24T03:51:13.903Z,4.15
2023-03-24T03:53:49.660Z,3.65
2023-03-24T03:56:13.605Z,2.83
2023-03-24T03:58:49.135Z,3.08
2023-03-24T04:01:16.797Z,2.67
2023-03-24T04:04:26.262Z,2.30
2023-03-24T04:07:28.587Z,2.92
2023-03-24T04:10:19.953Z,5.63
2023-03-24T04:13:12.165Z,4.07
2023-03-24T04:15:57.038Z,4.70
2023-03-24T04:18:58.917Z,3.63
2023-03-24T04:21:42.273Z,3.75
2023-03-24T04:24:26.905Z,2.72
2023-03-24T04:27:00.544Z,3.63
2023-03-24T04:29:36.943Z,4.88
2023-03-24T04:32:05.877Z,4.53
2023-03-24T04:34:37.504Z,6.93
2023-03-24T04:37:18.228Z,4.25
2023-03-24T04:39:58.852Z,4.65
2023-03-24T04:42:28.712Z,5.72
2023-03-24T04:44:52.415Z,3.33
2023-03-24T04:47:58.748Z,3.08
2023-03-24T04:50:56.827Z,3.17
2023-03-24T04:53:21.496Z,4.43
2023-03-24T04:56:09.320Z,3.63
2023-03-24T04:58:51.410Z,3.63
2023-03-24T05:01:17.227Z,6.93
2023-03-24T05:03:49.707Z,2.63
2023-03-24T05:06:15.050Z,2.80
2023-03-24T05:08:38.355Z,4.18
2023-03-24T05:11:01.704Z,5.13
2023-03-24T05:13:26.633Z,4.93
2023-03-24T05:15:55.443Z,8.32
2023-03-24T05:18:41.487Z,4.03
2023-03-24T05:21:05.211Z,2.92
2023-03-24T05:23:31.783Z,5.93
2023-03-24T05:25:55.377Z,5.68
2023-03-24T05:28:20.836Z,4.50
2023-03-24T05:30:44.431Z,3.35
2023-03-24T05:33:22.149Z,7.03
2023-03-24T05:35:45.837Z,2.75
2023-03-24T05:38:09.561Z,4.47
2023-03-24T05:40:37.328Z,3.83
2023-03-24T05:43:12.318Z,5.65
2023-03-24T05:45:39.845Z,5.28
2023-03-24T05:48:03.384Z,8.27
2023-03-24T05:50:45.163Z,4.60
2023-03-24T05:53:08.618Z,5.75
2023-03-24T05:55:53.589Z,5.30
2023-03-24T05:58:49.213Z,5.22
2023-03-24T06:01:13.410Z,4.68
2023-03-24T06:03:38.850Z,6.40
2023-03-24T06:06:08.144Z,7.95
2023-03-24T06:08:33.780Z,9.35
2023-03-24T06:11:02.649Z,8.40
2023-03-24T06:13:27.432Z,7.90
2023-03-24T06:15:50.743Z,9.00
2023-03-24T06:18:30.571Z,9.10
2023-03-24T06:20:57.459Z,8.70
2023-03-24T06:23:27.699Z,7.68
2023-03-24T06:26:11.483Z,13.35
2023-03-24T06:28:53.784Z,8.27
2023-03-24T06:31:20.442Z,15.50
2023-03-24T06:33:46.315Z,8.85
2023-03-24T06:36:12.314Z,12.77
2023-03-24T06:38:37.192Z,9.25
2023-03-24T06:41:02.410Z,8.88
2023-03-24T06:43:27.630Z,10.43
2023-03-24T06:45:50.854Z,7.60
2023-03-24T06:48:17.889Z,9.77
2023-03-24T06:50:41.421Z,9.27
2023-03-24T06:53:06.885Z,9.00
2023-03-24T06:55:32.423Z,8.10
2023-03-24T06:57:56.198Z,10.50
2023-03-24T07:00:26.797Z,7.68
2023-03-24T07:03:02.470Z,10.00
2023-03-24T07:05:26.080Z,9.52
2023-03-24T07:10:37.610Z,9.05
2023-03-24T07:13:02.617Z,15.57
2023-03-24T07:15:28.748Z,13.20
2023-03-24T07:17:53.223Z,13.52
2023-03-24T07:20:26.674Z,11.73
2023-03-24T07:23:09.468Z,7.43
2023-03-24T07:25:53.178Z,9.13
2023-03-24T07:28:34.900Z,7.88
2023-03-24T07:31:03.310Z,9.20
2023-03-24T07:33:27.221Z,13.45
2023-03-24T07:35:50.763Z,9.93
2023-03-24T07:38:14.063Z,12.32
2023-03-24T07:40:37.710Z,7.25
2023-03-24T07:43:02.328Z,6.93
2023-03-24T07:45:25.942Z,9.95
2023-03-24T07:47:50.830Z,13.73
2023-03-24T07:50:15.855Z,7.20
2023-03-24T07:52:40.546Z,5.90
2023-03-24T07:55:05.322Z,9.05
2023-03-24T07:57:42.392Z,12.13
2023-03-24T08:00:14.882Z,6.47
2023-03-24T08:02:52.966Z,10.48
2023-03-24T08:05:55.897Z,11.02
2023-03-24T08:08:27.268Z,12.18
2023-03-24T08:10:51.169Z,9.52
2023-03-24T08:13:14.423Z,11.98
2023-03-24T08:15:37.966Z,15.43
2023-03-24T08:18:02.972Z,10.55
2023-03-24T08:20:27.313Z,13.05
2023-03-24T08:22:54.329Z,14.13
2023-03-24T08:25:20.716Z,11.65
2023-03-24T08:27:44.803Z,14.15
2023-03-24T08:30:10.969Z,11.02
2023-03-24T08:32:34.900Z,13.77
2023-03-24T08:35:00.181Z,10.82
2023-03-24T08:37:23.441Z,12.73
2023-03-24T08:39:46.919Z,12.85
2023-03-24T08:42:10.665Z,9.55
2023-03-24T08:44:33.920Z,13.27
2023-03-24T08:46:57.568Z,14.27
2023-03-24T08:49:21.206Z,14.15
2023-03-24T08:51:46.467Z,10.23
2023-03-24T08:54:12.605Z,12.63
2023-03-24T08:56:35.921Z,13.32
2023-03-24T08:58:59.231Z,17.65
2023-03-24T09:01:23.747Z,14.80
2023-03-24T09:03:47.619Z,9.07
2023-03-24T09:06:10.969Z,11.50
2023-03-24T09:08:35.894Z,10.70
2023-03-24T09:10:59.517Z,17.00
2023-03-24T09:13:23.048Z,10.13
2023-03-24T09:15:51.864Z,16.10
2023-03-24T09:18:15.840Z,12.70
2023-03-24T09:20:39.055Z,11.10
2023-03-24T09:23:02.451Z,10.00
2023-03-24T09:25:27.197Z,12.02
2023-03-24T09:27:51.276Z,11.05
2023-03-24T09:30:17.855Z,13.18
2023-03-24T09:32:41.615Z,9.18
2023-03-24T09:35:06.102Z,14.82
2023-03-24T09:37:30.885Z,15.30
2023-03-24T09:39:55.081Z,10.20
2023-03-24T09:42:25.631Z,9.43
2023-03-24T09:44:53.759Z,10.05
2023-03-24T09:47:28.086Z,9.75
2023-03-24T09:49:53.764Z,11.35
2023-03-24T09:52:23.454Z,10.50
2023-03-24T09:54:55.020Z,12.18
2023-03-24T09:57:25.014Z,10.10
2023-03-24T09:59:48.287Z,12.75
2023-03-24T10:02:16.057Z,13.57
2023-03-24T10:04:39.465Z,12.35
2023-03-24T10:07:09.582Z,12.40
2023-03-24T10:09:36.180Z,10.10
2023-03-24T10:12:20.524Z,9.75
2023-03-24T10:15:11.837Z,9.18
2023-03-24T10:17:46.533Z,12.65
2023-03-24T10:20:25.828Z,10.85
2023-03-24T10:23:02.070Z,13.10
2023-03-24T10:25:37.364Z,8.15
2023-03-24T10:28:06.046Z,9.43
2023-03-24T10:30:34.849Z,11.23
2023-03-24T10:32:58.391Z,10.27
2023-03-24T10:35:26.323Z,10.85
2023-03-24T10:37:50.930Z,11.35
2023-03-24T10:40:19.080Z,9.25
2023-03-24T10:42:42.400Z,11.40
2023-03-24T10:45:08.013Z,10.40
2023-03-24T10:47:33.995Z,9.57
2023-03-24T10:50:11.900Z,7.18
2023-03-24T10:52:41.308Z,7.72
2023-03-24T10:55:07.459Z,8.20
2023-03-24T10:57:31.726Z,6.65
2023-03-24T10:59:59.644Z,8.93
2023-03-24T11:02:26.854Z,18.63
2023-03-24T11:04:57.868Z,8.40
2023-03-24T11:07:23.824Z,10.80
2023-03-24T11:09:50.417Z,12.10
2023-03-24T11:12:25.714Z,10.75
2023-03-24T11:14:48.998Z,14.05
2023-03-24T11:17:16.051Z,10.70
2023-03-24T11:19:39.970Z,8.38
2023-03-24T11:22:08.900Z,10.18
2023-03-24T11:24:36.688Z,10.68
2023-03-24T11:27:02.124Z,8.52
2023-03-24T11:29:28.083Z,8.55
2023-03-24T11:31:58.424Z,12.30
2023-03-24T11:34:25.254Z,9.77
2023-03-24T11:36:52.160Z,13.15
2023-03-24T11:39:21.763Z,7.05
2023-03-24T11:41:53.784Z,9.60
2023-03-24T11:44:22.640Z,12.98
2023-03-24T11:46:48.643Z,13.75
2023-03-24T11:49:18.077Z,8.85
2023-03-24T11:51:43.563Z,7.57
2023-03-24T11:54:13.243Z,7.07
2023-03-24T11:56:43.092Z,8.85
2023-03-24T11:59:15.633Z,8.25
2023-03-24T12:01:41.480Z,7.43
2023-03-24T12:04:30.872Z,9.18
2023-03-24T12:07:15.583Z,6.55
2023-03-24T12:09:47.615Z,9.05
2023-03-24T12:12:27.915Z,9.45
2023-03-24T12:15:28.854Z,7.57
2023-03-24T12:18:04.268Z,8.70
2023-03-24T12:20:32.790Z,10.02
2023-03-24T12:23:02.976Z,10.10
2023-03-24T12:26:03.804Z,8.50
2023-03-24T12:29:26.444Z,9.15
2023-03-24T12:32:07.636Z,12.45
2023-03-24T12:35:16.528Z,8.18
2023-03-24T12:37:50.872Z,10.10
2023-03-24T12:40:54.859Z,6.00
2023-03-24T12:43:30.734Z,10.32
2023-03-24T12:45:58.542Z,9.00
2023-03-24T12:48:55.899Z,6.75
2023-03-24T12:51:34.091Z,10.32
2023-03-24T12:54:12.025Z,10.30
2023-03-24T12:56:42.128Z,9.90
2023-03-24T12:59:11.682Z,8.98
2023-03-24T13:01:40.930Z,9.70
2023-03-24T13:04:11.922Z,10.93
2023-03-24T13:06:40.585Z,10.43
2023-03-24T13:09:13.279Z,9.80
2023-03-24T13:11:44.739Z,10.02
2023-03-24T13:14:16.760Z,10.93
2023-03-24T13:16:43.532Z,9.07
2023-03-24T13:19:20.266Z,8.20
2023-03-24T13:21:45.034Z,7.70
2023-03-24T13:24:13.580Z,13.27
2023-03-24T13:26:40.959Z,5.50
2023-03-24T13:29:38.470Z,10.60
2023-03-24T13:32:24.334Z,8.18
2023-03-24T13:34:56.055Z,6.35
2023-03-24T13:37:23.306Z,7.15
2023-03-24T13:39:48.246Z,10.05
2023-03-24T13:42:32.576Z,6.82
2023-03-24T13:44:55.926Z,3.72
2023-03-24T13:47:21.062Z,9.30
2023-03-24T13:49:55.057Z,5.28
2023-03-24T13:52:28.928Z,9.77
2023-03-24T13:54:57.768Z,7.32
2023-03-24T13:57:23.535Z,8.43
2023-03-24T14:00:18.576Z,7.70
2023-03-24T14:02:49.076Z,6.07
2023-03-24T14:05:13.710Z,7.85
2023-03-24T14:07:51.801Z,5.22
2023-03-24T14:10:45.654Z,3.35
2023-03-24T14:13:25.317Z,3.85
2023-03-24T14:15:52.611Z,4.40
2023-03-24T14:18:43.058Z,7.90
2023-03-24T14:21:08.734Z,4.57
2023-03-24T14:23:38.402Z,3.70
2023-03-24T14:26:01.996Z,4.75
2023-03-24T14:28:33.713Z,5.53
2023-03-24T14:31:24.436Z,9.15
2023-03-24T14:34:05.743Z,4.32
2023-03-24T14:36:32.841Z,5.38
2023-03-24T14:38:56.156Z,4.88
2023-03-24T14:41:31.239Z,9.23
2023-03-24T14:43:59.865Z,4.85
2023-03-24T14:46:40.425Z,4.32
2023-03-24T14:49:11.128Z,5.60
2023-03-24T14:51:41.966Z,5.63
2023-03-24T14:54:12.552Z,2.67
2023-03-24T14:56:41.399Z,5.20
2023-03-24T14:59:12.221Z,7.75
2023-03-24T15:01:42.238Z,5.93
2023-03-24T15:04:11.215Z,5.75
2023-03-24T15:06:35.080Z,7.13
2023-03-24T15:09:01.187Z,3.78
2023-03-24T15:11:29.638Z,6.35
2023-03-24T15:13:54.469Z,4.22
2023-03-24T15:16:25.404Z,4.55
2023-03-24T15:19:00.743Z,3.92
2023-03-24T15:21:34.526Z,6.05
2023-03-24T15:24:01.022Z,7.10
2023-03-24T15:26:26.757Z,4.15
2023-03-24T15:28:57.501Z,5.90
2023-03-24T15:31:22.603Z,6.05
2023-03-24T15:33:47.010Z,7.25
2023-03-24T15:36:18.849Z,7.50
2023-03-24T15:38:47.673Z,13.52
2023-03-24T15:41:15.516Z,6.53
2023-03-24T15:43:45.789Z,6.15
2023-03-24T15:46:27.177Z,6.03
2023-03-24T15:48:50.974Z,6.78
2023-03-24T15:51:15.196Z,5.40
2023-03-24T15:53:44.213Z,3.47
2023-03-24T15:56:20.626Z,7.63
2023-03-24T15:58:55.415Z,4.65
2023-03-24T16:01:25.858Z,3.35
2023-03-24T16:03:49.774Z,3.60
2023-03-24T16:06:16.331Z,2.90
2023-03-24T16:08:41.052Z,2.17
2023-03-24T16:11:10.819Z,4.03
2023-03-24T16:13:36.416Z,3.35
2023-03-24T16:16:03.625Z,1.23
2023-03-24T16:18:32.974Z,3.30
2023-03-24T16:20:56.325Z,5.32
2023-03-24T16:23:20.047Z,3.10
2023-03-24T16:25:43.347Z,2.42
2023-03-24T16:28:07.381Z,2.33
2023-03-24T16:30:39.216Z,3.05
2023-03-24T16:33:02.706Z,4.38
2023-03-24T16:35:26.078Z,2.63
2023-03-24T16:37:49.418Z,3.28
2023-03-24T16:40:28.284Z,3.25
2023-03-24T16:42:51.554Z,3.10
2023-03-24T16:45:14.955Z,4.13
2023-03-24T16:47:39.744Z,4.80
2023-03-24T16:50:03.036Z,3.67
2023-03-24T16:52:26.336Z,4.50
2023-03-24T16:54:50.534Z,4.35
2023-03-24T16:57:14.177Z,2.70
2023-03-24T16:59:37.557Z,4.28
2023-03-24T17:02:05.680Z,2.65
2023-03-24T17:04:33.582Z,3.40
2023-03-24T17:06:56.968Z,4.32
2023-03-24T17:09:21.670Z,2.80
2023-03-24T17:11:48.866Z,2.67
2023-03-24T17:14:13.158Z,2.72
2023-03-24T17:16:38.279Z,3.45
2023-03-24T17:19:01.999Z,2.28
2023-03-24T17:21:26.728Z,5.85
2023-03-24T17:23:54.767Z,1.80
2023-03-24T17:26:18.418Z,2.90
2023-03-24T17:28:41.700Z,1.63
2023-03-24T17:31:05.541Z,3.15
2023-03-24T17:33:28.906Z,2.22
2023-03-24T17:35:52.582Z,2.75
2023-03-24T17:38:17.657Z,2.28
2023-03-24T17:40:41.740Z,3.38
2023-03-24T17:43:05.586Z,4.28
2023-03-24T17:45:28.919Z,5.88
2023-03-24T17:47:52.273Z,3.90
2023-03-24T17:50:15.959Z,3.53
2023-03-24T17:52:40.057Z,3.83
2023-03-24T17:55:05.642Z,5.05
2023-03-24T17:57:28.973Z,4.18
2023-03-24T17:59:53.151Z,4.95
2023-03-24T18:02:17.822Z,4.25
2023-03-24T18:04:41.515Z,5.85
2023-03-24T18:07:05.037Z,6.22
2023-03-24T18:09:28.703Z,6.57
2023-03-24T18:11:53.485Z,5.60
2023-03-24T18:14:16.865Z,5.15
2023-03-24T18:16:40.333Z,4.28
2023-03-24T18:19:04.204Z,5.05
2023-03-24T18:21:27.662Z,4.85
2023-03-24T18:23:51.599Z,7.60
2023-03-24T18:26:15.723Z,6.07
2023-03-24T18:28:42.105Z,6.50
2023-03-24T18:31:10.016Z,4.93
2023-03-24T18:33:33.348Z,4.22
2023-03-24T18:35:56.998Z,4.28
2023-03-24T18:38:22.373Z,6.00
2023-03-24T18:40:47.206Z,3.95
2023-03-24T18:43:11.947Z,3.72
2023-03-24T18:45:36.959Z,4.60
2023-03-24T18:48:00.601Z,7.10
2023-03-24T18:50:23.943Z,4.32
2023-03-24T18:52:47.215Z,7.25
2023-03-24T18:55:11.669Z,6.35
2023-03-24T18:57:35.021Z,3.72
2023-03-24T18:59:58.364Z,7.95
2023-03-24T19:02:23.167Z,7.70
2023-03-24T19:04:48.158Z,4.50
2023-03-24T19:07:14.539Z,3.33
2023-03-24T19:09:38.468Z,6.43
2023-03-24T19:12:01.849Z,4.43
2023-03-24T19:14:26.490Z,6.65
2023-03-24T19:16:49.762Z,5.47
2023-03-24T19:19:14.442Z,5.85
2023-03-24T19:21:37.906Z,5.97
2023-03-24T19:24:01.203Z,7.05
2023-03-24T19:26:24.842Z,5.45
2023-03-24T19:28:48.378Z,4.63
2023-03-24T19:31:15.372Z,6.05
2023-03-24T19:33:39.262Z,6.70
2023-03-24T19:36:04.757Z,5.45
2023-03-24T19:38:29.114Z,6.13
2023-03-24T19:40:53.912Z,8.13
2023-03-24T19:43:17.302Z,7.40
2023-03-24T19:45:42.792Z,7.85
2023-03-24T19:48:06.368Z,8.75
2023-03-24T19:50:30.247Z,6.32
2023-03-24T19:52:54.955Z,5.80
2023-03-24T19:55:18.493Z,9.25
2023-03-24T19:57:42.329Z,3.97
2023-03-24T20:00:09.239Z,7.82
2023-03-24T20:02:32.555Z,4.35
2023-03-24T20:04:56.169Z,5.93
2023-03-24T20:07:19.530Z,5.38
2023-03-24T20:09:44.469Z,3.90
2023-03-24T20:12:07.951Z,3.72
2023-03-24T20:14:31.529Z,3.03
2023-03-24T20:16:55.062Z,4.25
2023-03-24T20:19:18.388Z,1.33
2023-03-24T20:21:41.758Z,2.47
2023-03-24T20:24:05.517Z,3.55
2023-03-24T20:26:30.437Z,2.03
2023-03-24T20:28:53.802Z,2.58
2023-03-24T20:31:17.798Z,3.25
2023-03-24T20:33:41.217Z,1.88
2023-03-24T20:36:06.182Z,1.20
2023-03-24T20:38:29.843Z,2.75
2023-03-24T20:41:00.668Z,3.05
2023-03-24T20:43:25.335Z,1.83
2023-03-24T20:45:48.801Z,1.80
2023-03-24T20:48:12.357Z,3.13
2023-03-24T20:50:36.689Z,4.00
2023-03-24T20:53:00.359Z,1.95
2023-03-24T20:55:24.069Z,1.90
2023-03-24T20:57:47.494Z,3.40
2023-03-24T21:00:14.791Z,4.22
2023-03-24T21:02:38.294Z,4.40
2023-03-24T21:05:01.746Z,2.38
2023-03-24T21:07:25.169Z,4.80
2023-03-24T21:09:48.546Z,5.25
2023-03-24T21:12:11.922Z,3.65
2023-03-24T21:14:35.241Z,2.70
2023-03-24T21:16:59.968Z,3.30
2023-03-24T21:19:24.263Z,7.32
2023-03-24T21:21:49.423Z,6.72
2023-03-24T21:24:14.249Z,2.95
2023-03-24T21:26:37.497Z,5.88
2023-03-24T21:29:00.730Z,3.55
2023-03-24T21:31:27.763Z,2.35
2023-03-24T21:33:53.141Z,2.78
2023-03-24T21:36:16.875Z,4.63
2023-03-24T21:38:40.674Z,3.80
2023-03-24T21:41:04.160Z,5.13
2023-03-24T21:43:29.257Z,4.50
2023-03-24T21:45:54.487Z,3.05
2023-03-24T21:48:18.311Z,3.20
2023-03-24T21:50:45.358Z,1.60
2023-03-24T21:53:15.373Z,3.53
2023-03-24T21:55:38.821Z,3.95
2023-03-24T21:58:02.086Z,4.72
2023-03-24T22:00:29.936Z,2.42
2023-03-24T22:02:58.193Z,4.63
2023-03-24T22:05:23.880Z,3.30
2023-03-24T22:07:49.341Z,2.65
2023-03-24T22:10:14.477Z,3.67
2023-03-24T22:12:37.799Z,4.38
2023-03-24T22:15:01.949Z,2.60
2023-03-24T22:17:25.366Z,1.85
2023-03-24T22:19:48.651Z,3.33
2023-03-24T22:22:11.869Z,4.95
2023-03-24T22:24:37.219Z,3.38
2023-03-24T22:27:00.899Z,4.72
2023-03-24T22:29:24.293Z,2.95
2023-03-24T22:31:47.597Z,2.38
2023-03-24T22:34:11.061Z,2.38
2023-03-24T22:36:34.306Z,2.92
2023-03-24T22:38:57.575Z,1.77
2023-03-24T22:41:22.264Z,2.00
2023-03-24T22:43:45.548Z,2.25
2023-03-24T22:46:09.504Z,4.07
2023-03-24T22:48:32.794Z,3.83
2023-03-24T22:50:56.152Z,4.38
2023-03-24T22:53:19.410Z,2.92
2023-03-24T22:55:44.816Z,3.13
2023-03-24T22:58:09.862Z,3.13
2023-03-24T23:00:33.461Z,3.00
2023-03-24T23:02:56.846Z,2.70
2023-03-24T23:05:20.360Z,4.82
2023-03-24T23:07:44.077Z,1.63
2023-03-24T23:10:08.386Z,2.90
2023-03-24T23:12:31.887Z,3.20
2023-03-24T23:14:56.892Z,5.00
2023-03-24T23:17:23.946Z,8.02
2023-03-24T23:19:47.440Z,5.25
2023-03-24T23:22:11.206Z,5.68
2023-03-24T23:24:39.255Z,8.18
2023-03-24T23:27:02.640Z,4.75
2023-03-24T23:29:26.075Z,4.38
2023-03-24T23:31:50.858Z,4.35
2023-03-24T23:34:14.076Z,3.70
2023-03-24T23:36:39.796Z,4.50
2023-03-24T23:39:03.985Z,5.53
2023-03-24T23:41:27.355Z,6.88
2023-03-24T23:43:51.761Z,4.78
2023-03-24T23:46:15.008Z,3.33
2023-03-24T23:48:39.720Z,5.22
2023-03-24T23:51:07.329Z,5.43
2023-03-24T23:53:31.766Z,3.67
2023-03-24T23:55:57.235Z,5.18
2023-03-24T23:58:20.429Z,6.88
